sensor_id;sensor_type;location;lat;lon;timestamp;pressure;altitude;pressure_sealevel;temperature;humidity
4167;BME280;2097;51.104;7.150;2023-03-04T00:01:03;99684.78;;;2.02;94.51
4167;BME280;2097;51.104;7.150;2023-03-04T00:03:30;99678.84;;;2.01;94.49
4167;BME280;2097;51.104;7.150;2023-03-04T00:05:57;99672.84;;;2.01;94.48
4167;BME280;2097;51.104;7.150;2023-03-04T00:08:24;99672.06;;;1.99;94.58
4167;BME280;2097;51.104;7.150;2023-03-04T00:10:51;99673.75;;;1.98;94.59
4167;BME280;2097;51.104;7.150;2023-03-04T00:13:19;99674.59;;;1.99;95.10
4167;BME280;2097;51.104;7.150;2023-03-04T00:15:46;99668.63;;;2.00;94.42
4167;BME280;2097;51.104;7.150;2023-03-04T00:18:13;99671.16;;;2.01;94.82
4167;BME280;2097;51.104;7.150;2023-03-04T00:20:40;99670.28;;;2.02;95.19
4167;BME280;2097;51.104;7.150;2023-03-04T00:23:07;99666.84;;;2.06;94.52
4167;BME280;2097;51.104;7.150;2023-03-04T00:25:34;99671.97;;;2.06;94.86
4167;BME280;2097;51.104;7.150;2023-03-04T00:28:00;99673.69;;;2.04;95.02
4167;BME280;2097;51.104;7.150;2023-03-04T00:30:29;99672.81;;;2.04;95.11
4167;BME280;2097;51.104;7.150;2023-03-04T00:32:55;99672.81;;;2.04;95.44
4167;BME280;2097;51.104;7.150;2023-03-04T00:35:22;99671.97;;;2.05;95.54
4167;BME280;2097;51.104;7.150;2023-03-04T00:37:49;99665.97;;;2.07;95.22
4167;BME280;2097;51.104;7.150;2023-03-04T00:40:16;99495.63;;;1.06;95.33
4167;BME280;2097;51.104;7.150;2023-03-04T00:42:43;99661.72;;;2.06;95.70
4167;BME280;2097;51.104;7.150;2023-03-04T00:45:10;99673.66;;;2.07;95.35
4167;BME280;2097;51.104;7.150;2023-03-04T00:47:38;99665.16;;;2.05;95.58
4167;BME280;2097;51.104;7.150;2023-03-04T00:50:06;99658.34;;;2.04;95.53
4167;BME280;2097;51.104;7.150;2023-03-04T00:52:33;99672.81;;;2.05;95.70
4167;BME280;2097;51.104;7.150;2023-03-04T00:55:00;99652.34;;;2.04;95.43
4167;BME280;2097;51.104;7.150;2023-03-04T00:57:27;99653.19;;;2.07;96.06
4167;BME280;2097;51.104;7.150;2023-03-04T00:59:53;99632.78;;;1.98;95.51
4167;BME280;2097;51.104;7.150;2023-03-04T01:02:20;99644.63;;;2.11;95.59
4167;BME280;2097;51.104;7.150;2023-03-04T01:04:48;99645.44;;;2.13;95.66
4167;BME280;2097;51.104;7.150;2023-03-04T01:07:15;99647.94;;;2.18;95.95
4167;BME280;2097;51.104;7.150;2023-03-04T01:09:42;99648.78;;;2.20;95.74
4167;BME280;2097;51.104;7.150;2023-03-04T01:12:08;99649.63;;;2.20;95.41
4167;BME280;2097;51.104;7.150;2023-03-04T01:14:35;99647.94;;;2.18;95.52
4167;BME280;2097;51.104;7.150;2023-03-04T01:17:02;99647.09;;;2.19;96.00
4167;BME280;2097;51.104;7.150;2023-03-04T01:19:29;99641.94;;;2.20;95.92
4167;BME280;2097;51.104;7.150;2023-03-04T01:21:57;99644.47;;;2.23;96.01
4167;BME280;2097;51.104;7.150;2023-03-04T01:24:24;99636.81;;;2.22;95.99
4167;BME280;2097;51.104;7.150;2023-03-04T01:26:51;99627.44;;;2.19;95.82
4167;BME280;2097;51.104;7.150;2023-03-04T01:29:17;99632.56;;;2.19;96.30
4167;BME280;2097;51.104;7.150;2023-03-04T01:31:44;99639.38;;;2.20;96.42
4167;BME280;2097;51.104;7.150;2023-03-04T01:34:11;99640.22;;;2.19;96.33
4167;BME280;2097;51.104;7.150;2023-03-04T01:36:38;99629.13;;;2.20;96.65
4167;BME280;2097;51.104;7.150;2023-03-04T01:39:06;99629.97;;;2.22;96.31
4167;BME280;2097;51.104;7.150;2023-03-04T01:41:33;99622.25;;;2.25;96.24
4167;BME280;2097;51.104;7.150;2023-03-04T01:44:00;99621.38;;;2.27;96.03
4167;BME280;2097;51.104;7.150;2023-03-04T01:46:27;99616.22;;;2.29;96.31
4167;BME280;2097;51.104;7.150;2023-03-04T01:48:54;99614.56;;;2.26;96.76
4167;BME280;2097;51.104;7.150;2023-03-04T01:51:22;99615.41;;;2.28;96.53
4167;BME280;2097;51.104;7.150;2023-03-04T01:53:50;99609.38;;;2.31;96.33
4167;BME280;2097;51.104;7.150;2023-03-04T01:56:22;99501.03;;;1.61;96.21
4167;BME280;2097;51.104;7.150;2023-03-04T01:59:08;99577.06;;;2.22;96.40
4167;BME280;2097;51.104;7.150;2023-03-04T02:01:36;99604.19;;;2.37;96.06
4167;BME280;2097;51.104;7.150;2023-03-04T02:04:03;99602.47;;;2.37;96.28
4167;BME280;2097;51.104;7.150;2023-03-04T02:06:30;99605.03;;;2.39;96.53
4167;BME280;2097;51.104;7.150;2023-03-04T02:08:57;99602.44;;;2.40;95.88
4167;BME280;2097;51.104;7.150;2023-03-04T02:11:25;99601.56;;;2.41;96.24
4167;BME280;2097;51.104;7.150;2023-03-04T02:13:52;99598.13;;;2.42;96.32
4167;BME280;2097;51.104;7.150;2023-03-04T02:16:19;99595.56;;;2.42;96.26
4167;BME280;2097;51.104;7.150;2023-03-04T02:18:46;99601.56;;;2.41;96.23
4167;BME280;2097;51.104;7.150;2023-03-04T02:21:18;99580.38;;;2.30;96.53
4167;BME280;2097;51.104;7.150;2023-03-04T02:23:54;99598.13;;;2.44;96.47
4167;BME280;2097;51.104;7.150;2023-03-04T02:26:25;99593.84;;;2.44;96.46
4167;BME280;2097;51.104;7.150;2023-03-04T02:28:54;99591.25;;;2.47;95.92
4167;BME280;2097;51.104;7.150;2023-03-04T02:31:24;99596.38;;;2.47;96.69
4167;BME280;2097;51.104;7.150;2023-03-04T02:33:52;99596.38;;;2.49;96.42
4167;BME280;2097;51.104;7.150;2023-03-04T02:36:21;99592.94;;;2.50;96.17
4167;BME280;2097;51.104;7.150;2023-03-04T02:38:49;99589.41;;;2.57;96.01
4167;BME280;2097;51.104;7.150;2023-03-04T02:41:19;99584.28;;;2.58;96.43
4167;BME280;2097;51.104;7.150;2023-03-04T02:43:50;99583.38;;;2.61;95.86
4167;BME280;2097;51.104;7.150;2023-03-04T02:46:17;99577.38;;;2.62;96.09
4167;BME280;2097;51.104;7.150;2023-03-04T02:48:44;99575.72;;;2.59;95.86
4167;BME280;2097;51.104;7.150;2023-03-04T02:51:11;99577.44;;;2.59;96.01
4167;BME280;2097;51.104;7.150;2023-03-04T02:53:37;99579.13;;;2.60;96.20
4167;BME280;2097;51.104;7.150;2023-03-04T02:56:05;99580.81;;;2.61;96.23
4167;BME280;2097;51.104;7.150;2023-03-04T02:58:32;99571.44;;;2.61;95.99
4167;BME280;2097;51.104;7.150;2023-03-04T03:01:00;99468.13;;;2.02;96.21
4167;BME280;2097;51.104;7.150;2023-03-04T03:03:27;99572.25;;;2.62;95.93
4167;BME280;2097;51.104;7.150;2023-03-04T03:05:54;99569.72;;;2.60;95.98
4167;BME280;2097;51.104;7.150;2023-03-04T03:08:20;99568.00;;;2.62;96.37
4167;BME280;2097;51.104;7.150;2023-03-04T03:10:48;99545.94;;;2.52;96.24
4167;BME280;2097;51.104;7.150;2023-03-04T03:13:15;99565.41;;;2.64;96.41
4167;BME280;2097;51.104;7.150;2023-03-04T03:15:42;99566.28;;;2.64;96.11
4167;BME280;2097;51.104;7.150;2023-03-04T03:18:11;99558.59;;;2.64;96.04
4167;BME280;2097;51.104;7.150;2023-03-04T03:20:38;99561.09;;;2.66;96.20
4167;BME280;2097;51.104;7.150;2023-03-04T03:23:05;99556.84;;;2.66;96.22
4167;BME280;2097;51.104;7.150;2023-03-04T03:25:32;99562.78;;;2.68;95.89
4167;BME280;2097;51.104;7.150;2023-03-04T03:27:59;99563.63;;;2.69;96.04
4167;BME280;2097;51.104;7.150;2023-03-04T03:30:25;99555.06;;;2.71;96.32
4167;BME280;2097;51.104;7.150;2023-03-04T03:32:52;99554.16;;;2.74;95.92
4167;BME280;2097;51.104;7.150;2023-03-04T03:35:20;99551.59;;;2.74;96.02
4167;BME280;2097;51.104;7.150;2023-03-04T03:37:47;99553.28;;;2.75;95.73
4167;BME280;2097;51.104;7.150;2023-03-04T03:40:15;99550.69;;;2.78;95.90
4167;BME280;2097;51.104;7.150;2023-03-04T03:42:41;99553.22;;;2.79;95.86
4167;BME280;2097;51.104;7.150;2023-03-04T03:45:09;99555.78;;;2.81;96.16
4167;BME280;2097;51.104;7.150;2023-03-04T03:47:37;99551.47;;;2.83;95.61
4167;BME280;2097;51.104;7.150;2023-03-04T03:50:05;99554.81;;;2.88;95.64
4167;BME280;2097;51.104;7.150;2023-03-04T03:52:33;99553.09;;;2.90;95.27
4167;BME280;2097;51.104;7.150;2023-03-04T03:55:00;99551.31;;;2.92;95.54
4167;BME280;2097;51.104;7.150;2023-03-04T03:57:27;99562.38;;;2.94;95.60
4167;BME280;2097;51.104;7.150;2023-03-04T03:59:54;99552.13;;;2.94;95.40
4167;BME280;2097;51.104;7.150;2023-03-04T04:02:21;99545.31;;;2.94;95.40
4167;BME280;2097;51.104;7.150;2023-03-04T04:04:48;99548.69;;;2.95;95.54
4167;BME280;2097;51.104;7.150;2023-03-04T04:07:15;99545.28;;;2.96;95.59
4167;BME280;2097;51.104;7.150;2023-03-04T04:09:44;99553.84;;;2.95;95.28
4167;BME280;2097;51.104;7.150;2023-03-04T04:12:12;99551.22;;;2.98;95.26
4167;BME280;2097;51.104;7.150;2023-03-04T04:14:40;99547.78;;;2.99;95.19
4167;BME280;2097;51.104;7.150;2023-03-04T04:17:08;99552.91;;;3.00;95.25
4167;BME280;2097;51.104;7.150;2023-03-04T04:19:35;99555.44;;;3.02;94.91
4167;BME280;2097;51.104;7.150;2023-03-04T04:22:02;99565.69;;;3.03;94.69
4167;BME280;2097;51.104;7.150;2023-03-04T04:24:29;99549.44;;;3.04;94.76
4167;BME280;2097;51.104;7.150;2023-03-04T04:26:57;99554.56;;;3.04;94.95
4167;BME280;2097;51.104;7.150;2023-03-04T04:29:24;99546.00;;;3.04;94.79
4167;BME280;2097;51.104;7.150;2023-03-04T04:31:51;99546.00;;;3.04;94.89
4167;BME280;2097;51.104;7.150;2023-03-04T04:34:18;99529.09;;;2.92;94.82
4167;BME280;2097;51.104;7.150;2023-03-04T04:36:44;99546.88;;;3.04;94.86
4167;BME280;2097;51.104;7.150;2023-03-04T04:39:11;99546.00;;;3.04;94.69
4167;BME280;2097;51.104;7.150;2023-03-04T04:41:42;99545.19;;;3.02;94.68
4167;BME280;2097;51.104;7.150;2023-03-04T04:44:12;99531.63;;;2.94;94.74
4167;BME280;2097;51.104;7.150;2023-03-04T04:46:40;99541.78;;;3.01;94.64
4167;BME280;2097;51.104;7.150;2023-03-04T04:49:07;99529.06;;;2.94;94.51
4167;BME280;2097;51.104;7.150;2023-03-04T04:51:36;99526.50;;;2.94;94.62
4167;BME280;2097;51.104;7.150;2023-03-04T04:54:03;99547.69;;;3.05;94.69
4167;BME280;2097;51.104;7.150;2023-03-04T04:56:30;99539.13;;;3.06;95.04
4167;BME280;2097;51.104;7.150;2023-03-04T04:58:59;99550.22;;;3.08;94.56
4167;BME280;2097;51.104;7.150;2023-03-04T05:01:27;99534.88;;;3.06;94.28
4167;BME280;2097;51.104;7.150;2023-03-04T05:03:54;99454.47;;;2.59;94.45
4167;BME280;2097;51.104;7.150;2023-03-04T05:06:22;99547.59;;;3.11;94.57
4167;BME280;2097;51.104;7.150;2023-03-04T05:08:50;99540.75;;;3.13;94.42
4167;BME280;2097;51.104;7.150;2023-03-04T05:11:17;99543.31;;;3.13;94.51
4167;BME280;2097;51.104;7.150;2023-03-04T05:13:45;99545.88;;;3.13;94.59
4167;BME280;2097;51.104;7.150;2023-03-04T05:16:12;99438.41;;;2.49;94.02
4167;BME280;2097;51.104;7.150;2023-03-04T05:18:41;99544.13;;;3.15;93.85
4167;BME280;2097;51.104;7.150;2023-03-04T05:21:07;99230.44;;;1.28;93.93
4167;BME280;2097;51.104;7.150;2023-03-04T05:23:37;99541.50;;;3.18;93.97
4167;BME280;2097;51.104;7.150;2023-03-04T05:26:05;99546.59;;;3.21;93.86
4167;BME280;2097;51.104;7.150;2023-03-04T05:28:33;99543.16;;;3.20;93.91
4167;BME280;2097;51.104;7.150;2023-03-04T05:31:00;99514.41;;;3.02;93.67
4167;BME280;2097;51.104;7.150;2023-03-04T05:33:27;99544.88;;;3.21;93.75
4167;BME280;2097;51.104;7.150;2023-03-04T05:35:55;99550.00;;;3.21;93.70
4167;BME280;2097;51.104;7.150;2023-03-04T05:38:23;99546.59;;;3.21;94.06
4167;BME280;2097;51.104;7.150;2023-03-04T05:40:55;99555.16;;;3.20;93.48
4167;BME280;2097;51.104;7.150;2023-03-04T05:43:22;99441.69;;;2.57;93.46
4167;BME280;2097;51.104;7.150;2023-03-04T05:45:49;99544.88;;;3.21;93.68
4167;BME280;2097;51.104;7.150;2023-03-04T05:48:16;99555.13;;;3.23;93.89
4167;BME280;2097;51.104;7.150;2023-03-04T05:50:43;99560.25;;;3.23;93.77
4167;BME280;2097;51.104;7.150;2023-03-04T05:53:11;99556.81;;;3.24;93.39
4167;BME280;2097;51.104;7.150;2023-03-04T05:55:38;99550.81;;;3.25;93.36
4167;BME280;2097;51.104;7.150;2023-03-04T05:58:05;99552.50;;;3.24;93.47
4167;BME280;2097;51.104;7.150;2023-03-04T06:00:32;99561.91;;;3.25;93.05
4167;BME280;2097;51.104;7.150;2023-03-04T06:02:58;99555.91;;;3.26;93.45
4167;BME280;2097;51.104;7.150;2023-03-04T06:05:25;99554.19;;;3.25;93.21
4167;BME280;2097;51.104;7.150;2023-03-04T06:07:52;99558.47;;;3.26;93.39
4167;BME280;2097;51.104;7.150;2023-03-04T06:10:20;99566.16;;;3.26;93.60
4167;BME280;2097;51.104;7.150;2023-03-04T06:12:47;99556.75;;;3.27;93.60
4167;BME280;2097;51.104;7.150;2023-03-04T06:17:42;99515.38;;;2.95;93.67
4167;BME280;2097;51.104;7.150;2023-03-04T06:20:10;99519.50;;;3.05;93.48
4167;BME280;2097;51.104;7.150;2023-03-04T06:22:37;99459.53;;;2.62;93.10
4167;BME280;2097;51.104;7.150;2023-03-04T06:25:05;99568.72;;;3.26;93.32
4167;BME280;2097;51.104;7.150;2023-03-04T06:27:34;99577.28;;;3.25;93.36
4167;BME280;2097;51.104;7.150;2023-03-04T06:30:01;99581.69;;;3.17;93.31
4167;BME280;2097;51.104;7.150;2023-03-04T06:32:28;99553.47;;;3.17;92.97
4167;BME280;2097;51.104;7.150;2023-03-04T06:34:55;99575.53;;;3.27;92.94
4167;BME280;2097;51.104;7.150;2023-03-04T06:37:21;99588.31;;;3.29;93.27
4167;BME280;2097;51.104;7.150;2023-03-04T06:39:49;99574.63;;;3.30;93.06
4167;BME280;2097;51.104;7.150;2023-03-04T06:42:16;99580.63;;;3.30;93.57
4167;BME280;2097;51.104;7.150;2023-03-04T06:44:44;99593.41;;;3.32;93.10
4167;BME280;2097;51.104;7.150;2023-03-04T06:47:10;99591.69;;;3.32;93.46
4167;BME280;2097;51.104;7.150;2023-03-04T06:49:38;99596.78;;;3.33;93.72
4167;BME280;2097;51.104;7.150;2023-03-04T06:52:05;99591.66;;;3.33;93.03
4167;BME280;2097;51.104;7.150;2023-03-04T06:54:31;99593.34;;;3.34;93.35
4167;BME280;2097;51.104;7.150;2023-03-04T06:56:58;99595.94;;;3.34;92.82
4167;BME280;2097;51.104;7.150;2023-03-04T06:59:25;99597.59;;;3.37;92.81
4167;BME280;2097;51.104;7.150;2023-03-04T07:01:53;99589.88;;;3.38;93.06
4167;BME280;2097;51.104;7.150;2023-03-04T07:04:20;99602.69;;;3.40;93.48
4167;BME280;2097;51.104;7.150;2023-03-04T07:06:48;99604.38;;;3.41;92.94
4167;BME280;2097;51.104;7.150;2023-03-04T07:09:15;99588.22;;;3.34;92.96
4167;BME280;2097;51.104;7.150;2023-03-04T07:11:45;99600.03;;;3.44;92.87
4167;BME280;2097;51.104;7.150;2023-03-04T07:14:12;99593.16;;;3.46;92.89
4167;BME280;2097;51.104;7.150;2023-03-04T07:16:39;99602.56;;;3.46;92.38
4167;BME280;2097;51.104;7.150;2023-03-04T07:19:07;99602.56;;;3.47;92.72
4167;BME280;2097;51.104;7.150;2023-03-04T07:21:34;99599.94;;;3.49;92.29
4167;BME280;2097;51.104;7.150;2023-03-04T07:24:02;99583.00;;;3.42;92.46
4167;BME280;2097;51.104;7.150;2023-03-04T07:26:29;99608.47;;;3.52;92.68
4167;BME280;2097;51.104;7.150;2023-03-04T07:28:56;99609.25;;;3.56;92.79
4167;BME280;2097;51.104;7.150;2023-03-04T07:31:27;99606.66;;;3.57;93.11
4167;BME280;2097;51.104;7.150;2023-03-04T07:33:55;99587.13;;;3.50;92.57
4167;BME280;2097;51.104;7.150;2023-03-04T07:36:24;99609.94;;;3.65;92.57
4167;BME280;2097;51.104;7.150;2023-03-04T07:38:52;99609.00;;;3.69;92.85
4167;BME280;2097;51.104;7.150;2023-03-04T07:41:21;99612.34;;;3.74;92.69
4167;BME280;2097;51.104;7.150;2023-03-04T07:43:48;99616.59;;;3.77;92.71
4167;BME280;2097;51.104;7.150;2023-03-04T07:46:15;99599.50;;;3.74;92.43
4167;BME280;2097;51.104;7.150;2023-03-04T07:48:42;99619.06;;;3.81;92.00
4167;BME280;2097;51.104;7.150;2023-03-04T07:51:13;99606.34;;;3.75;92.83
4167;BME280;2097;51.104;7.150;2023-03-04T07:53:43;99618.91;;;3.89;92.26
4167;BME280;2097;51.104;7.150;2023-03-04T07:56:12;99623.94;;;3.95;92.41
4167;BME280;2097;51.104;7.150;2023-03-04T07:58:39;99623.00;;;4.00;92.40
4167;BME280;2097;51.104;7.150;2023-03-04T08:01:09;99627.19;;;4.06;91.74
4167;BME280;2097;51.104;7.150;2023-03-04T08:03:36;99603.47;;;3.93;91.53
4167;BME280;2097;51.104;7.150;2023-03-04T08:06:05;99634.84;;;4.07;91.73
4167;BME280;2097;51.104;7.150;2023-03-04T08:08:32;99625.63;;;3.97;92.21
4167;BME280;2097;51.104;7.150;2023-03-04T08:11:03;99619.44;;;4.07;92.29
4167;BME280;2097;51.104;7.150;2023-03-04T08:13:30;99615.94;;;4.13;91.74
4167;BME280;2097;51.104;7.150;2023-03-04T08:15:57;99621.84;;;4.16;92.57
4167;BME280;2097;51.104;7.150;2023-03-04T08:18:25;99618.28;;;4.23;92.13
4167;BME280;2097;51.104;7.150;2023-03-04T08:20:52;99617.28;;;4.30;92.58
4167;BME280;2097;51.104;7.150;2023-03-04T08:23:19;99622.38;;;4.32;91.98
4167;BME280;2097;51.104;7.150;2023-03-04T08:25:46;99618.84;;;4.37;92.49
4167;BME280;2097;51.104;7.150;2023-03-04T08:28:14;99616.25;;;4.37;92.01
4167;BME280;2097;51.104;7.150;2023-03-04T08:30:41;99624.84;;;4.38;92.17
4167;BME280;2097;51.104;7.150;2023-03-04T08:33:09;99628.22;;;4.40;91.71
4167;BME280;2097;51.104;7.150;2023-03-04T08:35:37;99619.63;;;4.41;91.93
4167;BME280;2097;51.104;7.150;2023-03-04T08:38:04;99629.13;;;4.37;91.77
4167;BME280;2097;51.104;7.150;2023-03-04T08:40:31;99625.75;;;4.35;92.03
4167;BME280;2097;51.104;7.150;2023-03-04T08:42:58;99637.72;;;4.36;92.23
4167;BME280;2097;51.104;7.150;2023-03-04T08:45:26;99635.06;;;4.39;92.45
4167;BME280;2097;51.104;7.150;2023-03-04T08:47:53;99646.00;;;4.50;92.56
4167;BME280;2097;51.104;7.150;2023-03-04T08:50:20;99639.97;;;4.52;92.15
4167;BME280;2097;51.104;7.150;2023-03-04T08:52:47;99639.88;;;4.55;92.25
4167;BME280;2097;51.104;7.150;2023-03-04T08:55:14;99621.09;;;4.52;91.64
4167;BME280;2097;51.104;7.150;2023-03-04T08:57:40;99642.25;;;4.66;91.69
4167;BME280;2097;51.104;7.150;2023-03-04T09:00:09;99640.19;;;4.81;91.51
4167;BME280;2097;51.104;7.150;2023-03-04T09:02:38;99630.50;;;4.92;92.18
4167;BME280;2097;51.104;7.150;2023-03-04T09:05:06;99627.72;;;5.03;91.31
4167;BME280;2097;51.104;7.150;2023-03-04T09:07:33;99623.41;;;5.05;91.84
4167;BME280;2097;51.104;7.150;2023-03-04T09:10:00;99630.59;;;5.26;91.08
4167;BME280;2097;51.104;7.150;2023-03-04T09:12:27;99631.28;;;5.34;91.43
4167;BME280;2097;51.104;7.150;2023-03-04T09:14:54;99630.03;;;5.50;90.31
4167;BME280;2097;51.104;7.150;2023-03-04T09:17:21;99628.91;;;5.59;90.46
4167;BME280;2097;51.104;7.150;2023-03-04T09:19:49;99626.88;;;5.72;90.70
4167;BME280;2097;51.104;7.150;2023-03-04T09:22:16;99634.72;;;5.67;90.31
4167;BME280;2097;51.104;7.150;2023-03-04T09:24:43;99629.44;;;5.73;91.19
4167;BME280;2097;51.104;7.150;2023-03-04T09:27:09;99626.50;;;5.88;90.67
4167;BME280;2097;51.104;7.150;2023-03-04T09:29:36;99626.25;;;5.97;89.53
4167;BME280;2097;51.104;7.150;2023-03-04T09:32:03;99618.38;;;6.03;89.97
4167;BME280;2097;51.104;7.150;2023-03-04T09:34:30;99626.59;;;6.17;89.74
4167;BME280;2097;51.104;7.150;2023-03-04T09:36:59;99633.31;;;6.21;89.58
4167;BME280;2097;51.104;7.150;2023-03-04T09:39:25;99631.03;;;6.11;89.74
4167;BME280;2097;51.104;7.150;2023-03-04T09:41:54;99627.00;;;6.02;90.22
4167;BME280;2097;51.104;7.150;2023-03-04T09:44:26;99630.38;;;6.04;89.68
4167;BME280;2097;51.104;7.150;2023-03-04T09:46:55;99630.28;;;6.07;89.77
4167;BME280;2097;51.104;7.150;2023-03-04T09:49:23;99635.22;;;6.16;89.61
4167;BME280;2097;51.104;7.150;2023-03-04T09:51:59;99617.91;;;6.20;89.22
4167;BME280;2097;51.104;7.150;2023-03-04T09:55:03;99618.66;;;6.23;90.11
4167;BME280;2097;51.104;7.150;2023-03-04T09:57:42;99606.94;;;6.13;90.03
4167;BME280;2097;51.104;7.150;2023-03-04T10:00:16;99624.13;;;6.13;88.84
4167;BME280;2097;51.104;7.150;2023-03-04T10:02:51;99618.44;;;6.00;90.01
4167;BME280;2097;51.104;7.150;2023-03-04T10:05:25;99622.28;;;5.86;90.36
4167;BME280;2097;51.104;7.150;2023-03-04T10:07:57;99622.59;;;5.72;90.48
4167;BME280;2097;51.104;7.150;2023-03-04T10:10:28;99619.44;;;5.61;90.58
4167;BME280;2097;51.104;7.150;2023-03-04T10:12:59;99617.88;;;5.55;90.82
4167;BME280;2097;51.104;7.150;2023-03-04T10:15:31;99623.19;;;5.49;90.56
4167;BME280;2097;51.104;7.150;2023-03-04T10:18:03;99628.44;;;5.46;91.15
4167;BME280;2097;51.104;7.150;2023-03-04T10:20:46;99626.94;;;5.36;90.98
4167;BME280;2097;51.104;7.150;2023-03-04T10:23:20;99629.53;;;5.36;92.06
4167;BME280;2097;51.104;7.150;2023-03-04T10:25:47;99627.50;;;5.48;92.39
4167;BME280;2097;51.104;7.150;2023-03-04T10:28:20;99621.88;;;5.66;91.70
4167;BME280;2097;51.104;7.150;2023-03-04T10:30:53;99574.41;;;5.44;91.82
4167;BME280;2097;51.104;7.150;2023-03-04T10:33:26;99629.28;;;5.81;91.26
4167;BME280;2097;51.104;7.150;2023-03-04T10:36:00;99618.25;;;5.74;91.33
4167;BME280;2097;51.104;7.150;2023-03-04T10:38:30;99576.09;;;5.45;92.57
4167;BME280;2097;51.104;7.150;2023-03-04T10:40:58;99612.38;;;5.69;93.07
4167;BME280;2097;51.104;7.150;2023-03-04T10:43:26;99613.06;;;5.77;92.93
4167;BME280;2097;51.104;7.150;2023-03-04T10:45:54;99595.91;;;5.75;92.84
4167;BME280;2097;51.104;7.150;2023-03-04T10:48:25;99395.91;;;4.48;92.88
4167;BME280;2097;51.104;7.150;2023-03-04T10:50:52;99613.13;;;5.73;93.04
4167;BME280;2097;51.104;7.150;2023-03-04T10:53:30;99599.41;;;5.72;93.28
4167;BME280;2097;51.104;7.150;2023-03-04T10:55:59;99490.59;;;5.01;94.27
4167;BME280;2097;51.104;7.150;2023-03-04T10:58:27;99605.25;;;5.80;94.27
4167;BME280;2097;51.104;7.150;2023-03-04T11:01:03;99320.53;;;4.16;93.52
4167;BME280;2097;51.104;7.150;2023-03-04T11:03:33;99606.06;;;6.14;93.54
4167;BME280;2097;51.104;7.150;2023-03-04T11:06:14;99603.91;;;6.30;93.69
4167;BME280;2097;51.104;7.150;2023-03-04T11:08:44;99578.00;;;6.34;92.41
4167;BME280;2097;51.104;7.150;2023-03-04T11:11:37;99596.66;;;6.42;92.58
4167;BME280;2097;51.104;7.150;2023-03-04T11:14:15;99589.81;;;6.41;92.88
4167;BME280;2097;51.104;7.150;2023-03-04T11:16:52;99601.75;;;6.44;93.52
4167;BME280;2097;51.104;7.150;2023-03-04T11:19:19;99589.81;;;6.41;92.92
4167;BME280;2097;51.104;7.150;2023-03-04T11:21:50;99585.31;;;6.48;92.68
4167;BME280;2097;51.104;7.150;2023-03-04T11:24:21;99592.25;;;6.46;93.00
4167;BME280;2097;51.104;7.150;2023-03-04T11:26:52;99582.31;;;6.34;92.54
4167;BME280;2097;51.104;7.150;2023-03-04T11:29:23;99514.75;;;5.94;92.87
4167;BME280;2097;51.104;7.150;2023-03-04T11:31:54;99583.94;;;6.36;93.11
4167;BME280;2097;51.104;7.150;2023-03-04T11:34:30;99585.94;;;6.27;93.28
4167;BME280;2097;51.104;7.150;2023-03-04T11:37:03;99581.19;;;6.12;94.31
4167;BME280;2097;51.104;7.150;2023-03-04T11:39:35;99578.91;;;6.01;94.29
4167;BME280;2097;51.104;7.150;2023-03-04T11:42:06;99570.41;;;5.99;95.09
4167;BME280;2097;51.104;7.150;2023-03-04T11:44:37;99576.06;;;6.12;94.09
4167;BME280;2097;51.104;7.150;2023-03-04T11:47:20;99575.81;;;6.19;94.27
4167;BME280;2097;51.104;7.150;2023-03-04T11:50:11;99564.75;;;6.17;93.48
4167;BME280;2097;51.104;7.150;2023-03-04T11:53:02;99565.88;;;6.07;93.78
4167;BME280;2097;51.104;7.150;2023-03-04T11:55:39;99563.38;;;6.04;93.91
4167;BME280;2097;51.104;7.150;2023-03-04T11:58:22;99558.22;;;6.04;93.80
4167;BME280;2097;51.104;7.150;2023-03-04T12:01:00;99561.53;;;6.09;94.07
4167;BME280;2097;51.104;7.150;2023-03-04T12:03:54;99557.09;;;6.14;94.06
4167;BME280;2097;51.104;7.150;2023-03-04T12:06:31;99559.47;;;6.22;93.46
4167;BME280;2097;51.104;7.150;2023-03-04T12:09:17;99552.31;;;6.31;93.53
4167;BME280;2097;51.104;7.150;2023-03-04T12:11:57;99541.72;;;6.40;93.62
4167;BME280;2097;51.104;7.150;2023-03-04T12:14:29;99539.97;;;6.42;93.14
4167;BME280;2097;51.104;7.150;2023-03-04T12:17:39;99541.56;;;6.46;93.71
4167;BME280;2097;51.104;7.150;2023-03-04T12:20:19;99539.88;;;6.45;93.22
4167;BME280;2097;51.104;7.150;2023-03-04T12:22:53;99529.28;;;6.54;93.57
4167;BME280;2097;51.104;7.150;2023-03-04T12:25:40;99515.50;;;6.55;92.73
4167;BME280;2097;51.104;7.150;2023-03-04T12:28:28;99518.03;;;6.84;93.00
4167;BME280;2097;51.104;7.150;2023-03-04T12:31:06;99514.84;;;7.02;92.06
4167;BME280;2097;51.104;7.150;2023-03-04T12:33:48;99507.22;;;7.25;91.51
4167;BME280;2097;51.104;7.150;2023-03-04T12:36:28;99509.38;;;7.37;90.58
4167;BME280;2097;51.104;7.150;2023-03-04T12:39:11;99504.44;;;7.31;91.18
4167;BME280;2097;51.104;7.150;2023-03-04T12:41:45;99506.72;;;7.14;90.51
4167;BME280;2097;51.104;7.150;2023-03-04T12:44:18;99502.06;;;6.99;90.99
4167;BME280;2097;51.104;7.150;2023-03-04T12:47:06;99500.56;;;6.92;91.91
4167;BME280;2097;51.104;7.150;2023-03-04T12:49:57;99505.25;;;6.79;91.81
4167;BME280;2097;51.104;7.150;2023-03-04T12:52:33;99503.78;;;6.73;92.35
4167;BME280;2097;51.104;7.150;2023-03-04T12:55:09;99497.97;;;6.66;92.46
4167;BME280;2097;51.104;7.150;2023-03-04T12:57:37;99502.31;;;6.64;92.24
4167;BME280;2097;51.104;7.150;2023-03-04T13:00:19;99492.97;;;6.60;92.29
4167;BME280;2097;51.104;7.150;2023-03-04T13:02:55;99494.88;;;6.55;92.32
4167;BME280;2097;51.104;7.150;2023-03-04T13:05:40;99494.88;;;6.55;92.35
4167;BME280;2097;51.104;7.150;2023-03-04T13:08:19;99492.16;;;6.60;92.29
4167;BME280;2097;51.104;7.150;2023-03-04T13:10:51;99486.13;;;6.59;92.43
4167;BME280;2097;51.104;7.150;2023-03-04T13:13:36;99477.56;;;6.59;92.42
4167;BME280;2097;51.104;7.150;2023-03-04T13:16:27;99478.47;;;6.58;92.06
4167;BME280;2097;51.104;7.150;2023-03-04T13:18:56;99480.16;;;6.59;91.92
4167;BME280;2097;51.104;7.150;2023-03-04T13:21:24;99493.47;;;6.73;91.87
4167;BME280;2097;51.104;7.150;2023-03-04T13:23:52;99470.63;;;6.88;91.08
4167;BME280;2097;51.104;7.150;2023-03-04T13:26:26;99455.25;;;6.85;91.16
4167;BME280;2097;51.104;7.150;2023-03-04T13:31:59;99470.19;;;7.00;90.72
4167;BME280;2097;51.104;7.150;2023-03-04T13:34:49;99455.50;;;7.02;90.69
4167;BME280;2097;51.104;7.150;2023-03-04T13:37:32;99373.28;;;6.41;90.56
4167;BME280;2097;51.104;7.150;2023-03-04T13:40:22;99457.16;;;6.78;91.03
4167;BME280;2097;51.104;7.150;2023-03-04T13:42:52;99463.53;;;6.67;91.00
4167;BME280;2097;51.104;7.150;2023-03-04T13:45:33;99450.81;;;6.63;91.47
4167;BME280;2097;51.104;7.150;2023-03-04T13:48:04;99450.13;;;6.56;91.32
4167;BME280;2097;51.104;7.150;2023-03-04T13:50:39;99465.13;;;6.45;91.54
4167;BME280;2097;51.104;7.150;2023-03-04T13:53:37;99446.34;;;6.40;91.58